createdAt,value
2022-11-15T00:01:18.749Z,5.10
2022-11-15T00:03:46.222Z,5.10
2022-11-15T00:06:13.223Z,5.00
2022-11-15T00:08:39.964Z,4.90
2022-11-15T00:11:06.700Z,5.00
2022-11-15T00:13:33.863Z,4.80
2022-11-15T00:16:02.964Z,4.90
2022-11-15T00:18:31.094Z,4.90
2022-11-15T00:21:10.677Z,4.90
2022-11-15T00:23:38.127Z,4.90
2022-11-15T00:26:05.216Z,4.80
2022-11-15T00:28:32.011Z,4.80
2022-11-15T00:31:07.911Z,4.80
2022-11-15T00:33:35.081Z,4.80
2022-11-15T00:36:05.372Z,4.80
2022-11-15T00:38:38.384Z,4.80
2022-11-15T00:41:09.607Z,4.80
2022-11-15T00:43:37.470Z,4.80
2022-11-15T00:46:04.511Z,4.80
2022-11-15T00:48:32.321Z,4.80
2022-11-15T00:50:59.294Z,4.80
2022-11-15T00:53:26.042Z,4.80
2022-11-15T00:55:52.865Z,4.80
2022-11-15T00:58:19.967Z,4.80
2022-11-15T01:00:46.748Z,4.80
2022-11-15T01:03:13.553Z,4.80
2022-11-15T01:05:40.319Z,4.80
2022-11-15T01:08:07.246Z,4.80
2022-11-15T01:10:34.837Z,4.80
2022-11-15T01:13:01.526Z,4.70
2022-11-15T01:15:28.262Z,4.70
2022-11-15T01:17:55.754Z,4.60
2022-11-15T01:20:22.566Z,4.60
2022-11-15T01:22:49.252Z,4.60
2022-11-15T01:25:16.038Z,4.60
2022-11-15T01:27:42.751Z,4.50
2022-11-15T01:30:10.164Z,4.50
2022-11-15T01:32:36.949Z,4.60
2022-11-15T01:35:03.999Z,4.40
2022-11-15T01:37:30.694Z,4.40
2022-11-15T01:39:57.425Z,4.40
2022-11-15T01:42:24.127Z,4.40
2022-11-15T01:44:52.629Z,4.30
2022-11-15T01:47:28.818Z,4.30
2022-11-15T01:50:03.341Z,4.30
2022-11-15T01:52:35.478Z,4.30
2022-11-15T01:55:10.190Z,4.40
2022-11-15T01:57:37.832Z,4.30
2022-11-15T02:00:06.361Z,4.20
2022-11-15T02:02:36.517Z,4.20
2022-11-15T02:05:04.402Z,4.20
2022-11-15T02:07:33.357Z,4.20
2022-11-15T02:10:08.700Z,4.10
2022-11-15T02:12:37.813Z,4.10
2022-11-15T02:15:07.248Z,4.10
2022-11-15T02:18:24.253Z,4.10
2022-11-15T02:21:11.888Z,4.10
2022-11-15T02:24:29.520Z,4.10
2022-11-15T02:27:55.178Z,4.10
2022-11-15T02:30:41.967Z,4.30
2022-11-15T02:33:42.006Z,4.20
2022-11-15T02:36:30.234Z,4.20
2022-11-15T02:39:15.006Z,4.20
2022-11-15T02:41:55.415Z,4.40
2022-11-15T02:44:39.107Z,4.40
2022-11-15T02:47:14.550Z,4.40
2022-11-15T02:49:48.344Z,4.40
2022-11-15T02:52:20.515Z,4.50
2022-11-15T02:54:58.118Z,4.50
2022-11-15T02:58:00.830Z,4.50
2022-11-15T03:00:35.935Z,4.50
2022-11-15T03:03:51.073Z,4.50
2022-11-15T03:06:47.757Z,4.40
2022-11-15T03:09:51.091Z,4.40
2022-11-15T03:12:50.244Z,4.40
2022-11-15T03:15:23.386Z,4.40
2022-11-15T03:18:01.429Z,4.40
2022-11-15T03:20:30.621Z,4.30
2022-11-15T03:23:08.967Z,4.30
2022-11-15T03:25:42.637Z,4.20
2022-11-15T03:28:16.253Z,4.10
2022-11-15T03:30:46.679Z,4.10
2022-11-15T03:33:13.647Z,4.10
2022-11-15T03:35:45.332Z,4.00
2022-11-15T03:38:25.888Z,4.00
2022-11-15T03:41:06.747Z,3.90
2022-11-15T03:44:00.889Z,3.90
2022-11-15T03:46:47.701Z,3.80
2022-11-15T03:49:28.431Z,3.80
2022-11-15T03:51:59.697Z,3.80
2022-11-15T03:54:26.442Z,3.80
2022-11-15T03:56:53.247Z,3.70
2022-11-15T03:59:20.008Z,3.70
2022-11-15T04:01:46.875Z,3.70
2022-11-15T04:04:13.694Z,3.70
2022-11-15T04:06:40.414Z,3.60
2022-11-15T04:09:07.180Z,3.60
2022-11-15T04:11:33.883Z,3.60
2022-11-15T04:14:00.636Z,3.60
2022-11-15T04:16:27.356Z,3.60
2022-11-15T04:19:12.554Z,3.60
2022-11-15T04:21:58.095Z,3.60
2022-11-15T04:24:24.815Z,3.50
2022-11-15T04:26:51.708Z,3.50
2022-11-15T04:29:36.384Z,3.50
2022-11-15T04:32:07.560Z,3.50
2022-11-15T04:34:34.308Z,3.50
2022-11-15T04:37:12.995Z,3.40
2022-11-15T04:39:41.466Z,3.40
2022-11-15T04:42:09.447Z,3.40
2022-11-15T04:44:36.345Z,3.40
2022-11-15T04:47:03.786Z,3.30
2022-11-15T04:49:30.484Z,3.30
2022-11-15T04:51:57.255Z,3.20
2022-11-15T04:54:24.025Z,3.20
2022-11-15T04:56:50.811Z,3.20
2022-11-15T04:59:17.584Z,3.10
2022-11-15T05:01:45.230Z,3.10
2022-11-15T05:04:21.347Z,3.10
2022-11-15T05:06:52.487Z,3.10
2022-11-15T05:09:21.485Z,3.00
2022-11-15T05:11:48.819Z,3.00
2022-11-15T05:14:16.256Z,3.00
2022-11-15T05:16:43.689Z,2.90
2022-11-15T05:19:10.724Z,2.90
2022-11-15T05:21:38.126Z,2.90
2022-11-15T05:24:05.865Z,2.90
2022-11-15T05:26:32.814Z,2.90
2022-11-15T05:29:00.330Z,2.90
2022-11-15T05:31:28.156Z,2.80
2022-11-15T05:33:56.621Z,2.80
2022-11-15T05:36:41.757Z,2.80
2022-11-15T05:39:09.965Z,2.80
2022-11-15T05:41:53.110Z,2.70
2022-11-15T05:44:24.227Z,2.70
2022-11-15T05:46:55.217Z,2.70
2022-11-15T05:49:28.046Z,2.60
2022-11-15T05:51:55.602Z,2.60
2022-11-15T05:54:25.683Z,2.60
2022-11-15T05:56:53.291Z,2.60
2022-11-15T05:59:20.851Z,2.60
2022-11-15T06:01:47.707Z,2.60
2022-11-15T06:04:14.470Z,2.60
2022-11-15T06:06:41.202Z,2.60
2022-11-15T06:09:07.936Z,2.60
2022-11-15T06:11:34.803Z,2.60
2022-11-15T06:14:01.572Z,2.50
2022-11-15T06:16:28.269Z,2.50
2022-11-15T06:18:54.991Z,2.50
2022-11-15T06:21:21.962Z,2.50
2022-11-15T06:23:51.419Z,2.50
2022-11-15T06:26:18.163Z,2.40
2022-11-15T06:28:44.861Z,2.50
2022-11-15T06:31:12.568Z,2.50
2022-11-15T06:33:40.341Z,2.50
2022-11-15T06:36:14.672Z,2.50
2022-11-15T06:38:45.343Z,2.50
2022-11-15T06:41:13.777Z,2.50
2022-11-15T06:43:40.986Z,2.50
2022-11-15T06:46:08.536Z,2.50
2022-11-15T06:48:35.910Z,2.50
2022-11-15T06:51:05.161Z,2.50
2022-11-15T06:53:33.807Z,2.50
2022-11-15T06:56:07.269Z,2.60
2022-11-15T06:58:34.738Z,2.60
2022-11-15T07:01:04.625Z,2.60
2022-11-15T07:03:32.401Z,2.70
2022-11-15T07:06:06.603Z,2.70
2022-11-15T07:08:34.612Z,2.70
2022-11-15T07:11:04.965Z,2.80
2022-11-15T07:13:37.044Z,2.80
2022-11-15T07:16:06.698Z,2.90
2022-11-15T07:18:37.045Z,3.00
2022-11-15T07:21:06.643Z,3.10
2022-11-15T07:23:34.514Z,3.50
2022-11-15T07:26:01.494Z,4.20
2022-11-15T07:28:28.665Z,5.20
2022-11-15T07:30:55.934Z,6.20
2022-11-15T07:33:23.266Z,7.60
2022-11-15T07:35:50.181Z,9.10
2022-11-15T07:38:21.097Z,10.40
2022-11-15T07:40:56.165Z,11.60
2022-11-15T07:43:22.869Z,12.70
2022-11-15T07:45:52.368Z,13.60
2022-11-15T07:48:21.507Z,14.40
2022-11-15T07:50:48.442Z,15.20
2022-11-15T07:53:17.538Z,15.90
2022-11-15T07:55:44.273Z,16.70
2022-11-15T07:58:13.185Z,17.40
2022-11-15T08:00:39.927Z,18.10
2022-11-15T08:03:13.007Z,18.60
2022-11-15T08:05:41.777Z,18.90
2022-11-15T08:08:11.626Z,19.20
2022-11-15T08:10:40.785Z,19.50
2022-11-15T08:13:12.028Z,19.60
2022-11-15T08:15:39.767Z,19.80
2022-11-15T08:18:13.027Z,19.90
2022-11-15T08:20:40.546Z,19.70
2022-11-15T08:23:08.641Z,18.90
2022-11-15T08:25:36.845Z,17.40
2022-11-15T08:28:07.814Z,16.00
2022-11-15T08:30:42.937Z,14.90
2022-11-15T08:33:14.829Z,14.20
2022-11-15T08:35:43.847Z,13.60
2022-11-15T08:38:10.932Z,13.40
2022-11-15T08:40:38.333Z,13.10
2022-11-15T08:43:05.276Z,12.80
2022-11-15T08:45:34.458Z,12.30
2022-11-15T08:48:04.060Z,12.30
2022-11-15T08:50:31.501Z,12.00
2022-11-15T08:53:09.338Z,12.10
2022-11-15T08:55:41.617Z,12.50
2022-11-15T08:58:08.378Z,12.10
2022-11-15T09:00:35.341Z,12.10
2022-11-15T09:03:06.158Z,12.10
2022-11-15T09:05:33.008Z,12.10
2022-11-15T09:07:59.697Z,12.20
2022-11-15T09:10:26.431Z,12.30
2022-11-15T09:12:53.257Z,12.40
2022-11-15T09:15:20.667Z,12.50
2022-11-15T09:17:47.367Z,12.50
2022-11-15T09:20:14.115Z,12.50
2022-11-15T09:22:41.572Z,12.60
2022-11-15T09:25:11.069Z,12.70
2022-11-15T09:27:38.153Z,13.20
2022-11-15T09:30:05.941Z,13.00
2022-11-15T09:32:37.966Z,13.10
2022-11-15T09:35:06.316Z,13.10
2022-11-15T09:37:33.466Z,13.30
2022-11-15T09:40:00.169Z,13.30
2022-11-15T09:42:51.538Z,13.40
2022-11-15T09:45:33.899Z,13.50
2022-11-15T09:48:20.396Z,13.60
2022-11-15T09:50:51.112Z,13.50
2022-11-15T09:54:30.796Z,13.60
2022-11-15T09:56:44.376Z,13.60
2022-11-15T09:59:37.493Z,13.70
2022-11-15T10:02:37.164Z,13.80
2022-11-15T10:05:05.032Z,13.90
2022-11-15T10:08:02.482Z,13.90
2022-11-15T10:10:49.229Z,14.00
2022-11-15T10:13:27.722Z,14.00
2022-11-15T10:16:05.239Z,14.10
2022-11-15T10:19:09.897Z,14.20
2022-11-15T10:21:57.039Z,14.30
2022-11-15T10:24:31.741Z,14.30
2022-11-15T10:26:58.572Z,14.30
2022-11-15T10:29:27.127Z,14.30
2022-11-15T10:31:54.236Z,14.50
2022-11-15T10:34:27.555Z,14.60
2022-11-15T10:36:59.862Z,14.70
2022-11-15T10:39:26.994Z,14.80
2022-11-15T10:41:54.476Z,15.00
2022-11-15T10:44:32.636Z,15.10
2022-11-15T10:46:59.236Z,15.20
2022-11-15T10:49:31.282Z,15.30
2022-11-15T10:51:59.064Z,15.30
2022-11-15T10:54:40.061Z,15.40
2022-11-15T10:57:16.815Z,15.50
2022-11-15T10:59:50.474Z,15.60
2022-11-15T11:03:01.422Z,15.70
2022-11-15T11:05:46.020Z,16.00
2022-11-15T11:08:15.707Z,16.30
2022-11-15T11:11:02.760Z,16.40
2022-11-15T11:13:38.944Z,16.60
2022-11-15T11:16:14.388Z,16.80
2022-11-15T11:19:09.958Z,16.90
2022-11-15T11:22:21.807Z,17.00
2022-11-15T11:25:09.660Z,17.10
2022-11-15T11:28:18.009Z,17.40
2022-11-15T11:31:26.940Z,17.70
2022-11-15T11:34:17.347Z,18.00
2022-11-15T11:36:58.217Z,18.00
2022-11-15T11:39:42.395Z,18.10
2022-11-15T11:42:33.092Z,18.20
2022-11-15T11:45:14.443Z,18.40
2022-11-15T11:47:55.462Z,18.50
2022-11-15T11:50:28.612Z,18.50
2022-11-15T11:53:22.243Z,18.60
2022-11-15T11:55:55.238Z,18.60
2022-11-15T11:58:45.666Z,18.70
2022-11-15T12:01:26.275Z,18.90
2022-11-15T12:04:20.506Z,18.90
2022-11-15T12:07:04.420Z,18.80
2022-11-15T12:09:36.980Z,18.70
2022-11-15T12:12:40.393Z,18.50
2022-11-15T12:15:10.370Z,18.70
2022-11-15T12:17:40.793Z,19.00
2022-11-15T12:20:27.324Z,19.00
2022-11-15T12:23:05.049Z,18.90
2022-11-15T12:25:55.795Z,18.80
2022-11-15T12:29:06.356Z,18.90
2022-11-15T12:31:36.194Z,19.00
2022-11-15T12:34:16.553Z,19.30
2022-11-15T12:36:45.350Z,19.60
2022-11-15T12:39:14.876Z,19.50
2022-11-15T12:41:44.938Z,19.50
2022-11-15T12:44:38.448Z,19.30
2022-11-15T12:47:26.140Z,19.50
2022-11-15T12:49:53.689Z,19.90
2022-11-15T12:52:21.090Z,20.10
2022-11-15T12:55:00.584Z,20.40
2022-11-15T12:57:35.595Z,20.60
2022-11-15T13:00:15.829Z,20.40
2022-11-15T13:02:46.221Z,20.10
2022-11-15T13:05:21.378Z,19.90
2022-11-15T13:07:48.016Z,19.60
2022-11-15T13:10:14.653Z,19.50
2022-11-15T13:12:50.061Z,19.30
2022-11-15T13:15:38.097Z,19.40
2022-11-15T13:18:55.603Z,19.50
2022-11-15T13:21:43.716Z,19.70
2022-11-15T13:24:17.533Z,19.70
2022-11-15T13:26:44.436Z,19.70
2022-11-15T13:29:18.569Z,19.50
2022-11-15T13:31:47.120Z,19.30
2022-11-15T13:34:51.147Z,18.80
2022-11-15T13:37:21.627Z,18.30
2022-11-15T13:39:50.251Z,17.80
2022-11-15T13:42:19.309Z,17.40
2022-11-15T13:45:02.325Z,17.10
2022-11-15T13:47:31.031Z,16.90
2022-11-15T13:49:59.387Z,16.70
2022-11-15T13:52:35.814Z,16.50
2022-11-15T13:55:15.493Z,16.30
2022-11-15T13:57:59.764Z,16.20
2022-11-15T14:00:45.015Z,16.40
2022-11-15T14:03:27.338Z,17.90
2022-11-15T14:06:16.882Z,19.50
2022-11-15T14:09:15.464Z,21.00
2022-11-15T14:11:56.942Z,21.70
2022-11-15T14:14:26.497Z,22.00
2022-11-15T14:17:01.636Z,21.90
2022-11-15T14:19:28.312Z,21.60
2022-11-15T14:22:26.884Z,21.20
2022-11-15T14:25:08.566Z,20.30
2022-11-15T14:27:35.782Z,19.40
2022-11-15T14:30:03.738Z,18.60
2022-11-15T14:32:48.648Z,17.80
2022-11-15T14:35:22.342Z,17.10
2022-11-15T14:37:50.184Z,16.50
2022-11-15T14:40:22.741Z,16.10
2022-11-15T14:42:50.896Z,15.80
2022-11-15T14:45:21.361Z,15.50
2022-11-15T14:47:49.018Z,15.30
2022-11-15T14:50:20.172Z,15.00
2022-11-15T14:52:47.860Z,14.70
2022-11-15T14:55:29.500Z,14.50
2022-11-15T14:57:56.843Z,14.10
2022-11-15T15:00:24.169Z,13.90
2022-11-15T15:02:54.739Z,13.70
2022-11-15T15:05:38.324Z,13.50
2022-11-15T15:08:07.110Z,13.30
2022-11-15T15:10:42.915Z,13.10
2022-11-15T15:13:26.940Z,12.90
2022-11-15T15:15:53.751Z,12.70
2022-11-15T15:18:20.893Z,12.50
2022-11-15T15:20:57.667Z,12.30
2022-11-15T15:23:26.403Z,12.10
2022-11-15T15:25:53.665Z,12.00
2022-11-15T15:28:20.374Z,11.80
2022-11-15T15:30:47.084Z,11.70
2022-11-15T15:33:13.848Z,11.50
2022-11-15T15:35:40.756Z,11.40
2022-11-15T15:38:09.163Z,11.20
2022-11-15T15:40:35.879Z,11.00
2022-11-15T15:43:02.633Z,10.90
2022-11-15T15:45:30.555Z,10.70
2022-11-15T15:48:02.965Z,10.60
2022-11-15T15:50:39.752Z,10.50
2022-11-15T15:53:09.561Z,10.40
2022-11-15T15:55:37.048Z,10.40
2022-11-15T15:58:05.912Z,10.30
2022-11-15T16:00:35.779Z,10.20
2022-11-15T16:03:02.784Z,10.10
2022-11-15T16:05:29.753Z,10.00
2022-11-15T16:07:56.493Z,9.90
2022-11-15T16:10:28.876Z,10.00
2022-11-15T16:12:57.590Z,9.90
2022-11-15T16:15:28.448Z,9.90
2022-11-15T16:18:00.782Z,9.80
2022-11-15T16:20:45.399Z,9.80
2022-11-15T16:23:16.584Z,9.80
2022-11-15T16:25:56.572Z,9.60
2022-11-15T16:28:28.998Z,9.60
2022-11-15T16:31:04.529Z,9.60
2022-11-15T16:33:32.282Z,9.60
2022-11-15T16:35:59.286Z,9.50
2022-11-15T16:38:26.472Z,9.50
2022-11-15T16:40:53.305Z,9.50
2022-11-15T16:43:20.379Z,9.40
2022-11-15T16:45:47.201Z,9.40
2022-11-15T16:48:28.435Z,9.40
2022-11-15T16:50:59.405Z,9.40
2022-11-15T16:53:27.769Z,9.30
2022-11-15T16:55:56.322Z,9.30
2022-11-15T16:58:24.188Z,9.30
2022-11-15T17:00:56.141Z,9.20
2022-11-15T17:03:24.798Z,9.20
2022-11-15T17:05:53.229Z,9.20
2022-11-15T17:08:21.975Z,9.20
2022-11-15T17:10:49.047Z,9.10
2022-11-15T17:13:15.750Z,9.00
2022-11-15T17:15:43.421Z,9.00
2022-11-15T17:18:15.308Z,9.00
2022-11-15T17:20:43.193Z,9.00
2022-11-15T17:23:14.492Z,8.90
2022-11-15T17:25:41.665Z,8.90
2022-11-15T17:28:08.426Z,8.90
2022-11-15T17:30:35.654Z,8.90
2022-11-15T17:33:02.526Z,8.90
2022-11-15T17:35:29.276Z,8.90
2022-11-15T17:37:55.956Z,8.90
2022-11-15T17:40:22.734Z,8.90
2022-11-15T17:42:49.498Z,8.90
2022-11-15T17:45:16.379Z,8.90
2022-11-15T17:47:43.098Z,8.90
2022-11-15T17:50:10.601Z,8.80
2022-11-15T17:52:37.555Z,8.80
2022-11-15T17:55:04.597Z,8.80
2022-11-15T17:57:31.426Z,8.70
2022-11-15T17:59:58.126Z,8.70
2022-11-15T18:02:24.898Z,8.70
2022-11-15T18:04:51.601Z,8.60
2022-11-15T18:07:18.331Z,8.60
2022-11-15T18:09:45.402Z,8.60
2022-11-15T18:12:12.737Z,8.60
2022-11-15T18:14:39.699Z,8.60
2022-11-15T18:17:06.764Z,8.50
2022-11-15T18:19:33.656Z,8.50
2022-11-15T18:22:01.303Z,8.50
2022-11-15T18:24:34.825Z,8.50
2022-11-15T18:27:03.899Z,8.50
2022-11-15T18:29:31.226Z,8.60
2022-11-15T18:31:58.782Z,8.60
2022-11-15T18:34:31.851Z,8.70
2022-11-15T18:36:59.208Z,8.80
2022-11-15T18:39:26.013Z,8.80
2022-11-15T18:41:52.774Z,8.90
2022-11-15T18:44:19.842Z,8.90
2022-11-15T18:46:46.643Z,9.00
2022-11-15T18:49:16.413Z,9.00
2022-11-15T18:51:43.863Z,9.00
2022-11-15T18:54:13.432Z,9.10
2022-11-15T18:56:40.913Z,9.10
2022-11-15T18:59:08.600Z,9.10
2022-11-15T19:01:39.045Z,9.20
2022-11-15T19:04:18.989Z,9.20
2022-11-15T19:06:48.820Z,9.20
2022-11-15T19:09:19.124Z,9.20
2022-11-15T19:11:48.671Z,9.20
2022-11-15T19:14:17.742Z,9.30
2022-11-15T19:16:52.017Z,9.30
2022-11-15T19:19:24.793Z,9.30
2022-11-15T19:21:52.733Z,9.30
2022-11-15T19:24:19.928Z,9.30
2022-11-15T19:26:46.934Z,9.20
2022-11-15T19:29:14.114Z,9.20
2022-11-15T19:31:41.895Z,9.20
2022-11-15T19:34:09.134Z,9.20
2022-11-15T19:36:41.109Z,9.10
2022-11-15T19:39:12.767Z,9.10
2022-11-15T19:41:44.211Z,9.10
2022-11-15T19:44:12.605Z,9.00
2022-11-15T19:46:40.297Z,9.00
2022-11-15T19:49:10.201Z,8.90
2022-11-15T19:51:37.596Z,8.90
2022-11-15T19:54:08.536Z,8.80
2022-11-15T19:56:36.005Z,8.70
2022-11-15T19:59:04.961Z,8.80
2022-11-15T20:01:39.043Z,8.80
2022-11-15T20:04:07.737Z,8.80
2022-11-15T20:06:40.248Z,8.80
2022-11-15T20:09:08.604Z,8.80
2022-11-15T20:11:37.787Z,8.70
2022-11-15T20:14:06.386Z,8.70
2022-11-15T20:16:33.481Z,8.70
2022-11-15T20:19:00.341Z,8.60
2022-11-15T20:21:27.199Z,8.60
2022-11-15T20:23:55.110Z,8.60
2022-11-15T20:26:22.154Z,8.60
2022-11-15T20:28:49.016Z,8.60
2022-11-15T20:31:16.897Z,8.50
2022-11-15T20:33:43.733Z,8.50
2022-11-15T20:36:14.108Z,8.40
2022-11-15T20:38:41.190Z,8.40
2022-11-15T20:41:08.499Z,8.30
2022-11-15T20:43:35.307Z,8.30
2022-11-15T20:46:02.017Z,8.20
2022-11-15T20:48:28.903Z,8.20
2022-11-15T20:51:24.903Z,8.20
2022-11-15T20:53:51.777Z,8.20
2022-11-15T20:56:21.654Z,8.20
2022-11-15T20:58:53.200Z,8.10
2022-11-15T21:01:24.588Z,8.10
2022-11-15T21:03:56.242Z,8.10
2022-11-15T21:06:25.509Z,8.10
2022-11-15T21:09:12.891Z,8.10
2022-11-15T21:11:59.208Z,8.00
2022-11-15T21:14:25.981Z,8.00
2022-11-15T21:16:52.913Z,8.00
2022-11-15T21:19:23.860Z,7.90
2022-11-15T21:21:53.885Z,7.90
2022-11-15T21:24:21.079Z,7.90
2022-11-15T21:26:47.844Z,7.90
2022-11-15T21:29:17.095Z,7.90
2022-11-15T21:31:46.584Z,7.90
2022-11-15T21:34:13.573Z,7.90
2022-11-15T21:36:40.382Z,7.80
2022-11-15T21:39:07.159Z,7.80
2022-11-15T21:41:35.019Z,7.80
2022-11-15T21:44:04.150Z,7.80
2022-11-15T21:46:32.133Z,7.70
2022-11-15T21:48:59.205Z,7.70
2022-11-15T21:51:25.932Z,7.60
2022-11-15T21:53:56.620Z,7.60
2022-11-15T21:56:25.602Z,7.60
2022-11-15T21:58:54.261Z,7.60
2022-11-15T22:01:41.929Z,7.60
2022-11-15T22:04:09.602Z,7.60
2022-11-15T22:06:36.814Z,7.60
2022-11-15T22:09:04.945Z,7.60
2022-11-15T22:11:32.218Z,7.60
2022-11-15T22:13:59.870Z,7.60
2022-11-15T22:16:26.566Z,7.50
2022-11-15T22:18:54.488Z,7.40
2022-11-15T22:21:22.214Z,6.60
2022-11-15T22:23:49.258Z,7.30
2022-11-15T22:26:23.176Z,7.20
2022-11-15T22:28:50.661Z,7.10
2022-11-15T22:31:17.536Z,7.10
2022-11-15T22:33:44.377Z,7.10
2022-11-15T22:36:12.835Z,7.00
2022-11-15T22:38:40.006Z,7.00
2022-11-15T22:41:07.000Z,6.90
2022-11-15T22:43:34.722Z,6.90
2022-11-15T22:46:04.276Z,6.80
2022-11-15T22:48:36.304Z,6.70
2022-11-15T22:51:04.718Z,6.70
2022-11-15T22:53:31.695Z,6.60
2022-11-15T22:56:02.495Z,6.60
2022-11-15T22:58:31.976Z,6.50
2022-11-15T23:01:02.368Z,6.40
2022-11-15T23:03:30.132Z,6.40
2022-11-15T23:06:06.547Z,6.30
2022-11-15T23:08:34.200Z,6.30
2022-11-15T23:11:22.976Z,6.30
2022-11-15T23:13:52.070Z,6.20
2022-11-15T23:16:22.741Z,6.20
2022-11-15T23:19:03.153Z,6.20
2022-11-15T23:21:58.579Z,6.20
2022-11-15T23:24:26.267Z,6.30
2022-11-15T23:27:07.181Z,6.30
2022-11-15T23:29:56.645Z,6.30
2022-11-15T23:32:42.021Z,6.30
2022-11-15T23:35:09.135Z,6.20
2022-11-15T23:37:36.035Z,6.20
2022-11-15T23:40:02.916Z,6.10
2022-11-15T23:42:29.769Z,6.10
2022-11-15T23:44:56.562Z,6.00
2022-11-15T23:47:23.531Z,6.00
2022-11-15T23:49:50.315Z,6.00
2022-11-15T23:52:17.445Z,5.90
2022-11-15T23:54:44.737Z,5.90
2022-11-15T23:57:12.363Z,5.80
2022-11-15T23:59:43.449Z,5.80
